sensor_id;sensor_type;location;lat;lon;timestamp;pressure;altitude;pressure_sealevel;temperature;humidity
60725;BME280;59881;36.722;-4.462;2023-05-08T00:01:07;101417.16;;;18.96;100.00
60725;BME280;59881;36.722;-4.462;2023-05-08T00:03:32;101433.28;;;18.95;100.00
60725;BME280;59881;36.722;-4.462;2023-05-08T00:05:58;101424.72;;;18.91;100.00
60725;BME280;59881;36.722;-4.462;2023-05-08T00:08:23;101401.69;;;18.90;100.00
60725;BME280;59881;36.722;-4.462;2023-05-08T00:10:49;101271.50;;;18.14;100.00
60725;BME280;59881;36.722;-4.462;2023-05-08T00:13:15;101392.81;;;18.90;100.00
60725;BME280;59881;36.722;-4.462;2023-05-08T00:15:40;101351.03;;;18.59;100.00
60725;BME280;59881;36.722;-4.462;2023-05-08T00:18:06;101391.16;;;18.89;100.00
60725;BME280;59881;36.722;-4.462;2023-05-08T00:20:32;101362.56;;;18.70;100.00
60725;BME280;59881;36.722;-4.462;2023-05-08T00:22:58;101315.91;;;18.45;100.00
60725;BME280;59881;36.722;-4.462;2023-05-08T00:25:24;101383.41;;;18.86;100.00
60725;BME280;59881;36.722;-4.462;2023-05-08T00:27:51;101248.28;;;17.95;100.00
60725;BME280;59881;36.722;-4.462;2023-05-08T00:30:16;101138.38;;;17.22;100.00
60725;BME280;59881;36.722;-4.462;2023-05-08T00:32:42;101376.34;;;18.65;100.00
60725;BME280;59881;36.722;-4.462;2023-05-08T00:35:07;101373.25;;;18.60;100.00
60725;BME280;59881;36.722;-4.462;2023-05-08T00:37:33;101404.16;;;18.72;100.00
60725;BME280;59881;36.722;-4.462;2023-05-08T00:39:59;101271.00;;;17.90;100.00
60725;BME280;59881;36.722;-4.462;2023-05-08T00:42:25;101344.69;;;18.31;100.00
60725;BME280;59881;36.722;-4.462;2023-05-08T00:44:50;101208.59;;;17.52;100.00
60725;BME280;59881;36.722;-4.462;2023-05-08T00:47:16;101296.19;;;18.07;100.00
60725;BME280;59881;36.722;-4.462;2023-05-08T00:49:41;101358.59;;;18.45;100.00
60725;BME280;59881;36.722;-4.462;2023-05-08T00:52:08;101307.00;;;18.15;100.00
60725;BME280;59881;36.722;-4.462;2023-05-08T00:54:35;101386.44;;;18.61;100.00
60725;BME280;59881;36.722;-4.462;2023-05-08T00:57:04;101339.34;;;18.31;100.00
60725;BME280;59881;36.722;-4.462;2023-05-08T00:59:31;101250.22;;;17.84;100.00
60725;BME280;59881;36.722;-4.462;2023-05-08T01:01:59;101121.94;;;17.07;100.00
60725;BME280;59881;36.722;-4.462;2023-05-08T01:04:25;101365.66;;;18.55;100.00
60725;BME280;59881;36.722;-4.462;2023-05-08T01:06:51;101364.66;;;18.56;100.00
60725;BME280;59881;36.722;-4.462;2023-05-08T01:09:16;101264.16;;;17.97;100.00
60725;BME280;59881;36.722;-4.462;2023-05-08T01:11:54;101390.00;;;18.81;100.00
60725;BME280;59881;36.722;-4.462;2023-05-08T01:14:31;101360.47;;;18.73;100.00
60725;BME280;59881;36.722;-4.462;2023-05-08T01:28:37;101373.25;;;18.70;100.00
60725;BME280;59881;36.722;-4.462;2023-05-08T01:31:16;101354.81;;;18.57;100.00
60725;BME280;59881;36.722;-4.462;2023-05-08T01:36:23;101344.41;;;18.44;100.00
60725;BME280;59881;36.722;-4.462;2023-05-08T01:39:38;101345.22;;;18.35;100.00
60725;BME280;59881;36.722;-4.462;2023-05-08T01:42:05;101319.06;;;18.09;100.00
60725;BME280;59881;36.722;-4.462;2023-05-08T01:44:40;101344.50;;;18.23;100.00
60725;BME280;59881;36.722;-4.462;2023-05-08T01:47:09;101342.25;;;18.18;100.00
60725;BME280;59881;36.722;-4.462;2023-05-08T01:49:39;101333.66;;;18.15;100.00
60725;BME280;59881;36.722;-4.462;2023-05-08T01:52:10;101348.94;;;18.13;100.00
60725;BME280;59881;36.722;-4.462;2023-05-08T01:54:44;101347.69;;;18.07;100.00
60725;BME280;59881;36.722;-4.462;2023-05-08T01:57:11;101345.97;;;18.06;100.00
60725;BME280;59881;36.722;-4.462;2023-05-08T01:59:40;101205.75;;;17.13;100.00
60725;BME280;59881;36.722;-4.462;2023-05-08T02:02:08;101366.59;;;18.04;100.00
60725;BME280;59881;36.722;-4.462;2023-05-08T02:04:34;101366.88;;;18.01;100.00
60725;BME280;59881;36.722;-4.462;2023-05-08T02:07:00;101342.41;;;17.86;100.00
60725;BME280;59881;36.722;-4.462;2023-05-08T02:09:28;101360.97;;;17.97;100.00
60725;BME280;59881;36.722;-4.462;2023-05-08T02:11:55;101366.88;;;18.01;100.00
60725;BME280;59881;36.722;-4.462;2023-05-08T02:14:22;101359.28;;;17.96;100.00
60725;BME280;59881;36.722;-4.462;2023-05-08T02:16:49;101366.44;;;17.96;100.00
60725;BME280;59881;36.722;-4.462;2023-05-08T02:19:17;101367.56;;;17.93;100.00
60725;BME280;59881;36.722;-4.462;2023-05-08T02:21:44;101355.31;;;17.91;100.00
60725;BME280;59881;36.722;-4.462;2023-05-08T02:24:12;101353.78;;;17.88;100.00
60725;BME280;59881;36.722;-4.462;2023-05-08T02:26:40;101356.72;;;17.85;100.00
60725;BME280;59881;36.722;-4.462;2023-05-08T02:29:07;101347.53;;;17.78;100.00
60725;BME280;59881;36.722;-4.462;2023-05-08T02:31:34;101212.66;;;16.94;100.00
60725;BME280;59881;36.722;-4.462;2023-05-08T02:34:01;101351.88;;;17.79;100.00
60725;BME280;59881;36.722;-4.462;2023-05-08T02:36:28;101337.22;;;17.64;100.00
60725;BME280;59881;36.722;-4.462;2023-05-08T02:38:57;101363.38;;;17.79;100.00
60725;BME280;59881;36.722;-4.462;2023-05-08T02:41:25;101346.13;;;17.74;100.00
60725;BME280;59881;36.722;-4.462;2023-05-08T02:43:53;101156.38;;;16.57;100.00
60725;BME280;59881;36.722;-4.462;2023-05-08T02:46:24;101356.97;;;17.82;100.00
60725;BME280;59881;36.722;-4.462;2023-05-08T02:49:05;101218.72;;;17.06;100.00
60725;BME280;59881;36.722;-4.462;2023-05-08T02:54:23;101360.91;;;18.18;100.00
60725;BME280;59881;36.722;-4.462;2023-05-08T02:57:00;101209.94;;;17.36;100.00
60725;BME280;59881;36.722;-4.462;2023-05-08T02:59:42;101367.03;;;18.40;100.00
60725;BME280;59881;36.722;-4.462;2023-05-08T03:02:14;101117.69;;;16.95;100.00
60725;BME280;59881;36.722;-4.462;2023-05-08T03:04:48;101352.56;;;18.43;100.00
60725;BME280;59881;36.722;-4.462;2023-05-08T03:07:15;101342.03;;;18.41;100.00
60725;BME280;59881;36.722;-4.462;2023-05-08T03:09:47;101363.28;;;18.62;100.00
60725;BME280;59881;36.722;-4.462;2023-05-08T03:12:19;101338.25;;;18.53;100.00
60725;BME280;59881;36.722;-4.462;2023-05-08T03:14:54;101360.91;;;18.69;100.00
60725;BME280;59881;36.722;-4.462;2023-05-08T03:17:25;101353.97;;;18.66;99.85
60725;BME280;59881;36.722;-4.462;2023-05-08T03:19:55;101364.94;;;18.73;99.27
60725;BME280;59881;36.722;-4.462;2023-05-08T03:22:26;101236.25;;;17.91;99.01
60725;BME280;59881;36.722;-4.462;2023-05-08T03:24:53;101364.13;;;18.72;98.83
60725;BME280;59881;36.722;-4.462;2023-05-08T03:27:21;101346.13;;;18.65;98.51
60725;BME280;59881;36.722;-4.462;2023-05-08T03:29:47;101078.34;;;16.99;97.62
60725;BME280;59881;36.722;-4.462;2023-05-08T03:32:16;101363.16;;;18.73;97.92
60725;BME280;59881;36.722;-4.462;2023-05-08T03:34:42;101353.44;;;18.72;97.79
60725;BME280;59881;36.722;-4.462;2023-05-08T03:37:09;101327.59;;;18.53;97.24
60725;BME280;59881;36.722;-4.462;2023-05-08T03:39:34;101347.56;;;18.69;96.94
60725;BME280;59881;36.722;-4.462;2023-05-08T03:42:00;101228.25;;;17.91;96.68
60725;BME280;59881;36.722;-4.462;2023-05-08T03:44:27;101351.91;;;18.60;96.51
60725;BME280;59881;36.722;-4.462;2023-05-08T03:46:55;101224.66;;;17.81;96.14
60725;BME280;59881;36.722;-4.462;2023-05-08T03:49:24;101339.34;;;18.51;95.82
60725;BME280;59881;36.722;-4.462;2023-05-08T03:51:52;101363.06;;;18.44;95.29
60725;BME280;59881;36.722;-4.462;2023-05-08T03:54:18;101335.81;;;18.31;94.77
60725;BME280;59881;36.722;-4.462;2023-05-08T03:56:43;101344.69;;;18.31;93.86
60725;BME280;59881;36.722;-4.462;2023-05-08T03:59:15;101317.53;;;18.07;93.64
60725;BME280;59881;36.722;-4.462;2023-05-08T04:01:54;101347.59;;;18.18;93.27
60725;BME280;59881;36.722;-4.462;2023-05-08T04:04:44;101353.75;;;18.19;93.07
60725;BME280;59881;36.722;-4.462;2023-05-08T04:07:19;101345.19;;;18.15;92.88
60725;BME280;59881;36.722;-4.462;2023-05-08T04:09:58;101328.00;;;17.98;92.69
60725;BME280;59881;36.722;-4.462;2023-05-08T04:12:39;101347.22;;;18.02;92.64
60725;BME280;59881;36.722;-4.462;2023-05-08T04:15:09;101232.97;;;17.16;92.58
60725;BME280;59881;36.722;-4.462;2023-05-08T04:17:40;101365.56;;;17.95;92.76
60725;BME280;59881;36.722;-4.462;2023-05-08T04:20:08;101370.06;;;17.95;93.20
60725;BME280;59881;36.722;-4.462;2023-05-08T04:22:37;101368.41;;;17.94;93.32
60725;BME280;59881;36.722;-4.462;2023-05-08T04:25:05;101364.31;;;17.90;93.29
60725;BME280;59881;36.722;-4.462;2023-05-08T04:27:32;101316.56;;;17.56;93.27
60725;BME280;59881;36.722;-4.462;2023-05-08T04:29:58;101371.25;;;17.81;93.25
60725;BME280;59881;36.722;-4.462;2023-05-08T04:32:24;101354.34;;;17.71;93.35
60725;BME280;59881;36.722;-4.462;2023-05-08T04:34:52;101355.78;;;17.75;93.36
60725;BME280;59881;36.722;-4.462;2023-05-08T04:37:35;101343.97;;;17.68;93.36
60725;BME280;59881;36.722;-4.462;2023-05-08T04:40:01;101201.13;;;16.73;93.52
60725;BME280;59881;36.722;-4.462;2023-05-08T04:42:28;101339.88;;;17.64;93.51
60725;BME280;59881;36.722;-4.462;2023-05-08T04:44:54;101349.56;;;17.65;93.49
60725;BME280;59881;36.722;-4.462;2023-05-08T04:47:20;101357.81;;;17.62;93.49
60725;BME280;59881;36.722;-4.462;2023-05-08T04:49:45;101342.97;;;17.38;93.49
60725;BME280;59881;36.722;-4.462;2023-05-08T04:52:11;101365.63;;;17.53;93.61
60725;BME280;59881;36.722;-4.462;2023-05-08T04:54:37;101118.00;;;15.97;93.46
60725;BME280;59881;36.722;-4.462;2023-05-08T04:57:02;101357.44;;;17.45;93.76
60725;BME280;59881;36.722;-4.462;2023-05-08T04:59:28;101375.81;;;17.48;93.84
60725;BME280;59881;36.722;-4.462;2023-05-08T05:01:54;101372.44;;;17.46;93.72
60725;BME280;59881;36.722;-4.462;2023-05-08T05:04:21;101367.63;;;17.40;93.78
60725;BME280;59881;36.722;-4.462;2023-05-08T05:06:47;101373.66;;;17.42;93.88
60725;BME280;59881;36.722;-4.462;2023-05-08T05:09:12;101261.16;;;16.66;93.60
60725;BME280;59881;36.722;-4.462;2023-05-08T05:11:38;101292.75;;;16.91;93.64
60725;BME280;59881;36.722;-4.462;2023-05-08T05:14:03;101372.84;;;17.42;93.85
60725;BME280;59881;36.722;-4.462;2023-05-08T05:16:30;100548.09;;;12.42;93.07
60725;BME280;59881;36.722;-4.462;2023-05-08T05:18:55;101367.38;;;17.43;93.50
60725;BME280;59881;36.722;-4.462;2023-05-08T05:21:21;101369.94;;;17.45;93.38
60725;BME280;59881;36.722;-4.462;2023-05-08T05:23:46;101210.34;;;16.48;93.30
60725;BME280;59881;36.722;-4.462;2023-05-08T05:26:12;101393.22;;;17.52;93.62
60725;BME280;59881;36.722;-4.462;2023-05-08T05:28:37;101064.78;;;15.76;93.12
60725;BME280;59881;36.722;-4.462;2023-05-08T05:31:03;101329.19;;;17.33;93.32
60725;BME280;59881;36.722;-4.462;2023-05-08T05:33:29;101384.25;;;17.74;93.23
60725;BME280;59881;36.722;-4.462;2023-05-08T05:35:54;101393.19;;;17.85;92.91
60725;BME280;59881;36.722;-4.462;2023-05-08T05:38:20;101392.63;;;17.91;92.47
60725;BME280;59881;36.722;-4.462;2023-05-08T05:40:45;101255.03;;;17.07;91.91
60725;BME280;59881;36.722;-4.462;2023-05-08T05:43:11;101308.38;;;17.48;91.67
60725;BME280;59881;36.722;-4.462;2023-05-08T05:45:37;101156.56;;;16.65;91.46
60725;BME280;59881;36.722;-4.462;2023-05-08T05:48:04;101352.22;;;17.86;90.97
60725;BME280;59881;36.722;-4.462;2023-05-08T05:50:30;101330.56;;;17.79;90.42
60725;BME280;59881;36.722;-4.462;2023-05-08T05:52:55;101307.91;;;17.85;90.12
60725;BME280;59881;36.722;-4.462;2023-05-08T05:55:21;101261.56;;;17.76;89.36
60725;BME280;59881;36.722;-4.462;2023-05-08T05:57:47;101393.88;;;18.68;88.76
60725;BME280;59881;36.722;-4.462;2023-05-08T06:00:13;101279.66;;;18.23;88.39
60725;BME280;59881;36.722;-4.462;2023-05-08T06:02:38;101325.38;;;18.88;88.45
60725;BME280;59881;36.722;-4.462;2023-05-08T06:05:06;101404.31;;;19.78;86.97
60725;BME280;59881;36.722;-4.462;2023-05-08T06:07:31;101405.28;;;20.24;85.61
60725;BME280;59881;36.722;-4.462;2023-05-08T06:09:58;101369.91;;;20.58;83.55
60725;BME280;59881;36.722;-4.462;2023-05-08T06:12:24;101239.09;;;20.45;80.44
60725;BME280;59881;36.722;-4.462;2023-05-08T06:14:51;101398.41;;;21.75;76.73
60725;BME280;59881;36.722;-4.462;2023-05-08T06:17:16;101395.16;;;21.97;74.82
60725;BME280;59881;36.722;-4.462;2023-05-08T06:19:43;101282.53;;;21.37;72.55
60725;BME280;59881;36.722;-4.462;2023-05-08T06:22:09;101358.41;;;21.89;70.35
60725;BME280;59881;36.722;-4.462;2023-05-08T06:24:35;101368.47;;;21.87;70.06
60725;BME280;59881;36.722;-4.462;2023-05-08T06:27:00;101335.56;;;22.20;69.82
60725;BME280;59881;36.722;-4.462;2023-05-08T06:29:26;101202.72;;;22.07;67.37
60725;BME280;59881;36.722;-4.462;2023-05-08T06:31:51;101362.97;;;23.31;65.34
60725;BME280;59881;36.722;-4.462;2023-05-08T06:34:17;101296.81;;;23.14;64.75
60725;BME280;59881;36.722;-4.462;2023-05-08T06:36:42;101328.81;;;24.04;62.59
60725;BME280;59881;36.722;-4.462;2023-05-08T06:39:08;101302.25;;;24.64;59.96
60725;BME280;59881;36.722;-4.462;2023-05-08T06:41:33;101244.94;;;25.08;57.04
60725;BME280;59881;36.722;-4.462;2023-05-08T06:43:59;101393.00;;;26.59;55.30
60725;BME280;59881;36.722;-4.462;2023-05-08T06:46:24;101221.03;;;25.79;53.58
60725;BME280;59881;36.722;-4.462;2023-05-08T06:48:50;101326.28;;;26.24;53.20
60725;BME280;59881;36.722;-4.462;2023-05-08T06:51:16;101396.53;;;26.60;52.87
60725;BME280;59881;36.722;-4.462;2023-05-08T06:53:41;101292.13;;;26.01;52.46
60725;BME280;59881;36.722;-4.462;2023-05-08T06:56:07;101298.50;;;26.94;50.52
60725;BME280;59881;36.722;-4.462;2023-05-08T06:58:32;101376.00;;;28.28;47.46
60725;BME280;59881;36.722;-4.462;2023-05-08T07:00:59;101377.16;;;28.54;46.78
60725;BME280;59881;36.722;-4.462;2023-05-08T07:03:26;101248.44;;;28.10;46.15
60725;BME280;59881;36.722;-4.462;2023-05-08T07:05:52;101392.31;;;29.29;44.97
60725;BME280;59881;36.722;-4.462;2023-05-08T07:08:17;101381.22;;;29.31;44.65
60725;BME280;59881;36.722;-4.462;2023-05-08T07:10:43;101436.97;;;29.60;44.37
60725;BME280;59881;36.722;-4.462;2023-05-08T07:13:08;101396.06;;;29.28;44.47
60725;BME280;59881;36.722;-4.462;2023-05-08T07:15:34;101357.44;;;29.13;44.54
60725;BME280;59881;36.722;-4.462;2023-05-08T07:17:59;101439.28;;;29.83;44.04
60725;BME280;59881;36.722;-4.462;2023-05-08T07:20:25;101341.75;;;29.55;43.26
60725;BME280;59881;36.722;-4.462;2023-05-08T07:22:51;101340.34;;;29.26;43.51
60725;BME280;59881;36.722;-4.462;2023-05-08T07:25:16;101319.88;;;29.03;44.53
60725;BME280;59881;36.722;-4.462;2023-05-08T07:27:42;101382.88;;;29.65;44.00
60725;BME280;59881;36.722;-4.462;2023-05-08T07:30:08;101418.09;;;30.12;43.21
60725;BME280;59881;36.722;-4.462;2023-05-08T07:32:34;101330.28;;;29.46;42.28
60725;BME280;59881;36.722;-4.462;2023-05-08T07:35:01;101408.22;;;30.38;42.20
60725;BME280;59881;36.722;-4.462;2023-05-08T07:37:27;101244.44;;;29.59;41.64
60725;BME280;59881;36.722;-4.462;2023-05-08T07:39:53;101423.25;;;30.79;41.12
60725;BME280;59881;36.722;-4.462;2023-05-08T07:42:19;101425.59;;;31.07;40.94
60725;BME280;59881;36.722;-4.462;2023-05-08T07:44:45;101434.88;;;30.54;42.01
60725;BME280;59881;36.722;-4.462;2023-05-08T07:47:11;101447.97;;;28.92;45.21
60725;BME280;59881;36.722;-4.462;2023-05-08T07:49:36;101381.53;;;28.06;46.71
60725;BME280;59881;36.722;-4.462;2023-05-08T07:52:02;101419.19;;;29.04;45.69
60725;BME280;59881;36.722;-4.462;2023-05-08T07:54:28;101425.44;;;30.05;43.70
60725;BME280;59881;36.722;-4.462;2023-05-08T07:56:53;101422.53;;;30.58;42.61
60725;BME280;59881;36.722;-4.462;2023-05-08T07:59:19;101243.50;;;29.91;41.56
60725;BME280;59881;36.722;-4.462;2023-05-08T08:01:44;101417.81;;;31.42;40.16
60725;BME280;59881;36.722;-4.462;2023-05-08T08:04:12;101432.47;;;31.66;39.63
60725;BME280;59881;36.722;-4.462;2023-05-08T08:06:38;101359.88;;;31.28;39.26
60725;BME280;59881;36.722;-4.462;2023-05-08T08:09:04;101407.66;;;31.93;39.23
60725;BME280;59881;36.722;-4.462;2023-05-08T08:11:29;101422.75;;;31.70;39.11
60725;BME280;59881;36.722;-4.462;2023-05-08T08:13:55;101429.16;;;31.32;40.03
60725;BME280;59881;36.722;-4.462;2023-05-08T08:16:21;101291.81;;;30.85;40.39
60725;BME280;59881;36.722;-4.462;2023-05-08T08:18:46;101405.59;;;32.62;37.84
60725;BME280;59881;36.722;-4.462;2023-05-08T08:21:12;101421.81;;;32.38;38.08
60725;BME280;59881;36.722;-4.462;2023-05-08T08:23:37;101444.34;;;32.15;38.32
60725;BME280;59881;36.722;-4.462;2023-05-08T08:26:03;101254.84;;;30.52;38.95
60725;BME280;59881;36.722;-4.462;2023-05-08T08:28:28;101398.22;;;30.63;39.84
60725;BME280;59881;36.722;-4.462;2023-05-08T08:30:54;101317.56;;;30.50;39.76
60725;BME280;59881;36.722;-4.462;2023-05-08T08:33:19;101456.63;;;31.31;39.54
60725;BME280;59881;36.722;-4.462;2023-05-08T08:35:45;101367.31;;;31.46;38.63
60725;BME280;59881;36.722;-4.462;2023-05-08T08:38:10;101274.38;;;31.91;37.06
60725;BME280;59881;36.722;-4.462;2023-05-08T08:40:39;101444.94;;;32.85;36.78
60725;BME280;59881;36.722;-4.462;2023-05-08T08:43:06;101266.88;;;32.05;37.02
60725;BME280;59881;36.722;-4.462;2023-05-08T08:45:31;101279.69;;;33.24;35.67
60725;BME280;59881;36.722;-4.462;2023-05-08T08:48:00;101394.44;;;34.81;33.84
60725;BME280;59881;36.722;-4.462;2023-05-08T08:50:31;101283.50;;;34.61;33.32
60725;BME280;59881;36.722;-4.462;2023-05-08T08:55:26;101324.09;;;34.81;33.26
60725;BME280;59881;36.722;-4.462;2023-05-08T08:58:17;101458.38;;;36.32;32.02
60725;BME280;59881;36.722;-4.462;2023-05-08T09:00:46;101332.13;;;35.61;31.36
60725;BME280;59881;36.722;-4.462;2023-05-08T09:03:13;101484.16;;;35.24;33.38
60725;BME280;59881;36.722;-4.462;2023-05-08T09:05:39;101286.56;;;33.50;34.30
60725;BME280;59881;36.722;-4.462;2023-05-08T09:08:05;101392.91;;;33.10;35.30
60725;BME280;59881;36.722;-4.462;2023-05-08T09:10:31;101288.56;;;31.82;36.63
60725;BME280;59881;36.722;-4.462;2023-05-08T09:12:57;101220.72;;;31.92;35.80
60725;BME280;59881;36.722;-4.462;2023-05-08T09:15:22;101415.59;;;32.80;36.39
60725;BME280;59881;36.722;-4.462;2023-05-08T09:17:48;101500.75;;;33.43;35.97
60725;BME280;59881;36.722;-4.462;2023-05-08T09:20:14;101487.94;;;32.34;38.17
60725;BME280;59881;36.722;-4.462;2023-05-08T09:22:41;101236.28;;;31.36;37.26
60725;BME280;59881;36.722;-4.462;2023-05-08T09:25:07;101124.66;;;31.96;35.22
60725;BME280;59881;36.722;-4.462;2023-05-08T09:27:33;101402.31;;;35.11;32.96
60725;BME280;59881;36.722;-4.462;2023-05-08T09:30:11;101479.59;;;36.42;31.87
60725;BME280;59881;36.722;-4.462;2023-05-08T09:32:38;101387.38;;;36.36;30.72
60725;BME280;59881;36.722;-4.462;2023-05-08T09:35:06;101475.13;;;37.07;30.75
60725;BME280;59881;36.722;-4.462;2023-05-08T09:37:32;101370.06;;;36.90;29.50
60725;BME280;59881;36.722;-4.462;2023-05-08T09:42:38;101382.03;;;38.01;28.21
60725;BME280;59881;36.722;-4.462;2023-05-08T09:45:05;101488.44;;;38.48;27.95
60725;BME280;59881;36.722;-4.462;2023-05-08T09:47:30;101508.09;;;38.77;27.98
60725;BME280;59881;36.722;-4.462;2023-05-08T09:50:07;101489.13;;;39.32;26.93
60725;BME280;59881;36.722;-4.462;2023-05-08T09:52:35;101392.72;;;38.76;27.35
60725;BME280;59881;36.722;-4.462;2023-05-08T09:55:07;101486.13;;;39.49;26.44
60725;BME280;59881;36.722;-4.462;2023-05-08T09:57:35;101485.00;;;39.86;25.99
60725;BME280;59881;36.722;-4.462;2023-05-08T10:00:12;101462.63;;;39.72;26.48
60725;BME280;59881;36.722;-4.462;2023-05-08T10:02:40;101486.63;;;39.82;25.71
60725;BME280;59881;36.722;-4.462;2023-05-08T10:05:24;101410.06;;;39.32;25.92
60725;BME280;59881;36.722;-4.462;2023-05-08T10:07:50;101498.38;;;40.28;25.21
60725;BME280;59881;36.722;-4.462;2023-05-08T10:10:22;101406.03;;;40.00;24.87
60725;BME280;59881;36.722;-4.462;2023-05-08T10:12:50;101512.22;;;40.78;25.00
60725;BME280;59881;36.722;-4.462;2023-05-08T10:15:17;101402.06;;;40.22;24.42
60725;BME280;59881;36.722;-4.462;2023-05-08T10:20:24;101328.31;;;39.88;23.93
60725;BME280;59881;36.722;-4.462;2023-05-08T10:22:55;101377.09;;;41.16;23.64
60725;BME280;59881;36.722;-4.462;2023-05-08T10:25:22;101490.19;;;41.71;23.69
60725;BME280;59881;36.722;-4.462;2023-05-08T10:30:23;101411.16;;;38.90;26.00
60725;BME280;59881;36.722;-4.462;2023-05-08T10:32:51;101527.03;;;38.05;27.56
60725;BME280;59881;36.722;-4.462;2023-05-08T10:35:20;101545.25;;;36.26;29.81
60725;BME280;59881;36.722;-4.462;2023-05-08T10:37:47;101534.81;;;35.39;31.38
60725;BME280;59881;36.722;-4.462;2023-05-08T10:40:13;101528.78;;;33.50;34.03
60725;BME280;59881;36.722;-4.462;2023-05-08T10:42:40;101450.44;;;30.85;38.19
60725;BME280;59881;36.722;-4.462;2023-05-08T10:45:07;101556.59;;;29.32;41.94
60725;BME280;59881;36.722;-4.462;2023-05-08T10:53:41;101531.72;;;26.52;49.31
60725;BME280;59881;36.722;-4.462;2023-05-08T10:56:09;101530.31;;;26.11;50.48
60725;BME280;59881;36.722;-4.462;2023-05-08T10:58:35;101525.41;;;25.92;51.25
60725;BME280;59881;36.722;-4.462;2023-05-08T11:03:39;101498.25;;;25.70;52.25
60725;BME280;59881;36.722;-4.462;2023-05-08T11:06:06;101538.28;;;26.05;52.13
60725;BME280;59881;36.722;-4.462;2023-05-08T11:08:42;101400.59;;;24.91;51.45
60725;BME280;59881;36.722;-4.462;2023-05-08T11:11:15;101253.75;;;23.86;51.79
60725;BME280;59881;36.722;-4.462;2023-05-08T11:13:47;101436.22;;;24.78;53.07
60725;BME280;59881;36.722;-4.462;2023-05-08T11:16:14;101315.00;;;24.15;52.42
60725;BME280;59881;36.722;-4.462;2023-05-08T11:19:15;101494.09;;;25.45;53.32
60725;BME280;59881;36.722;-4.462;2023-05-08T11:22:42;101475.25;;;25.36;53.15
60725;BME280;59881;36.722;-4.462;2023-05-08T11:24:53;101498.13;;;25.64;53.31
60725;BME280;59881;36.722;-4.462;2023-05-08T11:27:36;101496.13;;;25.80;52.20
60725;BME280;59881;36.722;-4.462;2023-05-08T11:35:41;101491.66;;;26.11;52.31
60725;BME280;59881;36.722;-4.462;2023-05-08T11:38:17;101419.38;;;25.68;52.41
60725;BME280;59881;36.722;-4.462;2023-05-08T11:40:44;101325.16;;;24.91;52.57
60725;BME280;59881;36.722;-4.462;2023-05-08T11:43:26;101488.09;;;26.10;51.77
60725;BME280;59881;36.722;-4.462;2023-05-08T11:45:59;101368.25;;;25.14;52.41
60725;BME280;59881;36.722;-4.462;2023-05-08T11:48:25;101447.50;;;25.51;53.66
60725;BME280;59881;36.722;-4.462;2023-05-08T11:50:50;101129.84;;;23.80;53.92
60725;BME280;59881;36.722;-4.462;2023-05-08T11:53:16;101493.81;;;26.15;53.65
60725;BME280;59881;36.722;-4.462;2023-05-08T11:55:46;101469.88;;;26.57;52.85
60725;BME280;59881;36.722;-4.462;2023-05-08T11:58:13;101459.69;;;26.74;52.08
60725;BME280;59881;36.722;-4.462;2023-05-08T12:00:42;101464.59;;;26.85;51.58
60725;BME280;59881;36.722;-4.462;2023-05-08T12:03:13;101415.84;;;26.27;51.93
60725;BME280;59881;36.722;-4.462;2023-05-08T12:05:39;101318.41;;;25.63;52.24
60725;BME280;59881;36.722;-4.462;2023-05-08T12:08:06;101483.38;;;26.42;51.90
60725;BME280;59881;36.722;-4.462;2023-05-08T12:10:32;101392.84;;;25.87;52.63
60725;BME280;59881;36.722;-4.462;2023-05-08T12:12:57;101399.16;;;25.79;52.98
60725;BME280;59881;36.722;-4.462;2023-05-08T12:15:23;101437.56;;;25.89;54.14
60725;BME280;59881;36.722;-4.462;2023-05-08T12:17:59;101419.59;;;25.96;54.46
60725;BME280;59881;36.722;-4.462;2023-05-08T12:20:25;101418.19;;;26.00;54.51
60725;BME280;59881;36.722;-4.462;2023-05-08T12:22:52;101425.97;;;25.80;54.48
60725;BME280;59881;36.722;-4.462;2023-05-08T12:25:18;101426.59;;;25.68;55.33
60725;BME280;59881;36.722;-4.462;2023-05-08T12:27:44;101301.78;;;24.83;55.82
60725;BME280;59881;36.722;-4.462;2023-05-08T12:30:12;101398.97;;;25.28;56.44
60725;BME280;59881;36.722;-4.462;2023-05-08T12:32:40;101437.34;;;25.38;56.69
60725;BME280;59881;36.722;-4.462;2023-05-08T12:35:10;101424.16;;;25.20;56.92
60725;BME280;59881;36.722;-4.462;2023-05-08T12:37:36;101467.78;;;25.47;57.69
60725;BME280;59881;36.722;-4.462;2023-05-08T12:40:02;101373.47;;;24.69;57.44
60725;BME280;59881;36.722;-4.462;2023-05-08T12:42:45;101334.59;;;24.32;57.89
60725;BME280;59881;36.722;-4.462;2023-05-08T12:45:18;101414.91;;;24.91;58.70
60725;BME280;59881;36.722;-4.462;2023-05-08T12:47:51;101443.63;;;25.30;58.59
60725;BME280;59881;36.722;-4.462;2023-05-08T12:50:18;101267.81;;;24.28;58.27
60725;BME280;59881;36.722;-4.462;2023-05-08T12:52:48;101445.59;;;25.36;57.94
60725;BME280;59881;36.722;-4.462;2023-05-08T12:55:21;101411.09;;;25.32;57.79
60725;BME280;59881;36.722;-4.462;2023-05-08T12:57:48;101438.66;;;25.57;57.23
60725;BME280;59881;36.722;-4.462;2023-05-08T13:00:15;101444.28;;;25.55;57.15
60725;BME280;59881;36.722;-4.462;2023-05-08T13:02:50;101437.28;;;25.46;58.08
60725;BME280;59881;36.722;-4.462;2023-05-08T13:05:21;101436.41;;;25.31;58.04
60725;BME280;59881;36.722;-4.462;2023-05-08T13:07:50;101438.50;;;25.12;58.18
60725;BME280;59881;36.722;-4.462;2023-05-08T13:10:16;101439.03;;;25.08;58.99
60725;BME280;59881;36.722;-4.462;2023-05-08T13:12:44;101305.09;;;24.08;58.59
60725;BME280;59881;36.722;-4.462;2023-05-08T13:15:09;101445.34;;;25.00;59.17
60725;BME280;59881;36.722;-4.462;2023-05-08T13:17:35;101448.91;;;24.92;59.24
60725;BME280;59881;36.722;-4.462;2023-05-08T13:20:01;101394.47;;;24.51;59.20
60725;BME280;59881;36.722;-4.462;2023-05-08T13:22:28;101278.44;;;23.90;59.07
60725;BME280;59881;36.722;-4.462;2023-05-08T13:24:53;101434.44;;;24.93;59.18